sensor_id;sensor_type;location;lat;lon;timestamp;temperature;humidity
46458;DHT22;32155;54.076;12.092;2024-03-08T00:01:35;0.70;99.90
46458;DHT22;32155;54.076;12.092;2024-03-08T00:04:01;0.80;99.90
46458;DHT22;32155;54.076;12.092;2024-03-08T00:06:26;0.80;99.90
46458;DHT22;32155;54.076;12.092;2024-03-08T00:08:52;0.80;99.90
46458;DHT22;32155;54.076;12.092;2024-03-08T00:11:17;0.90;99.90
46458;DHT22;32155;54.076;12.092;2024-03-08T00:13:43;0.90;99.90
46458;DHT22;32155;54.076;12.092;2024-03-08T00:16:10;0.80;99.90
46458;DHT22;32155;54.076;12.092;2024-03-08T00:18:35;0.80;99.90
46458;DHT22;32155;54.076;12.092;2024-03-08T00:21:01;0.80;99.90
46458;DHT22;32155;54.076;12.092;2024-03-08T00:23:26;0.80;99.90
46458;DHT22;32155;54.076;12.092;2024-03-08T00:32:20;0.80;99.90
46458;DHT22;32155;54.076;12.092;2024-03-08T00:53:36;0.50;99.90
46458;DHT22;32155;54.076;12.092;2024-03-08T00:56:40;0.50;99.90
46458;DHT22;32155;54.076;12.092;2024-03-08T00:59:39;0.50;99.90
46458;DHT22;32155;54.076;12.092;2024-03-08T01:02:44;0.40;99.90
46458;DHT22;32155;54.076;12.092;2024-03-08T01:11:52;0.30;99.90
46458;DHT22;32155;54.076;12.092;2024-03-08T01:17:51;0.30;99.90
46458;DHT22;32155;54.076;12.092;2024-03-08T01:24:35;0.20;99.90
46458;DHT22;32155;54.076;12.092;2024-03-08T01:31:02;0.20;99.90
46458;DHT22;32155;54.076;12.092;2024-03-08T01:33:27;0.10;99.90
46458;DHT22;32155;54.076;12.092;2024-03-08T01:46:15;0.10;99.90
46458;DHT22;32155;54.076;12.092;2024-03-08T01:51:45;0.00;99.90
46458;DHT22;32155;54.076;12.092;2024-03-08T02:03:25;0.00;99.90
46458;DHT22;32155;54.076;12.092;2024-03-08T02:22:28;-0.10;99.90
46458;DHT22;32155;54.076;12.092;2024-03-08T02:35:14;0.10;99.90
46458;DHT22;32155;54.076;12.092;2024-03-08T02:50:05;1.10;99.90
46458;DHT22;32155;54.076;12.092;2024-03-08T03:18:03;1.40;99.90
46458;DHT22;32155;54.076;12.092;2024-03-08T03:56:15;1.20;99.90
46458;DHT22;32155;54.076;12.092;2024-03-08T04:46:36;1.00;99.90
46458;DHT22;32155;54.076;12.092;2024-03-08T04:49:57;1.10;99.90
46458;DHT22;32155;54.076;12.092;2024-03-08T05:51:58;0.70;99.90
46458;DHT22;32155;54.076;12.092;2024-03-08T06:22:54;0.90;99.90
46458;DHT22;32155;54.076;12.092;2024-03-08T06:28:31;0.80;99.90
46458;DHT22;32155;54.076;12.092;2024-03-08T06:34:19;0.80;99.90
46458;DHT22;32155;54.076;12.092;2024-03-08T06:36:48;0.90;99.90
46458;DHT22;32155;54.076;12.092;2024-03-08T06:42:20;1.00;99.90
46458;DHT22;32155;54.076;12.092;2024-03-08T06:47:52;1.10;99.90
46458;DHT22;32155;54.076;12.092;2024-03-08T06:59:44;0.80;99.90
46458;DHT22;32155;54.076;12.092;2024-03-08T07:08:53;1.20;99.90
46458;DHT22;32155;54.076;12.092;2024-03-08T07:14:49;1.40;99.90
46458;DHT22;32155;54.076;12.092;2024-03-08T07:17:30;1.40;99.90
46458;DHT22;32155;54.076;12.092;2024-03-08T07:26:10;1.60;99.90
46458;DHT22;32155;54.076;12.092;2024-03-08T07:28:42;1.60;99.90
46458;DHT22;32155;54.076;12.092;2024-03-08T07:31:32;1.70;99.90
46458;DHT22;32155;54.076;12.092;2024-03-08T07:38:01;1.70;99.90
46458;DHT22;32155;54.076;12.092;2024-03-08T08:21:25;2.40;99.90
46458;DHT22;32155;54.076;12.092;2024-03-08T08:46:44;2.60;99.90
46458;DHT22;32155;54.076;12.092;2024-03-08T09:02:12;3.00;99.90
46458;DHT22;32155;54.076;12.092;2024-03-08T10:15:54;14.10;99.90
46458;DHT22;32155;54.076;12.092;2024-03-08T10:43:57;20.20;99.90
46458;DHT22;32155;54.076;12.092;2024-03-08T11:02:26;21.70;85.70
46458;DHT22;32155;54.076;12.092;2024-03-08T11:08:21;22.90;78.70
46458;DHT22;32155;54.076;12.092;2024-03-08T11:11:02;24.10;77.60
46458;DHT22;32155;54.076;12.092;2024-03-08T11:14:42;24.10;74.50
46458;DHT22;32155;54.076;12.092;2024-03-08T12:19:58;23.80;53.90
46458;DHT22;32155;54.076;12.092;2024-03-08T12:59:46;21.30;55.20
46458;DHT22;32155;54.076;12.092;2024-03-08T13:05:15;21.80;56.20
46458;DHT22;32155;54.076;12.092;2024-03-08T13:08:00;22.70;53.20
46458;DHT22;32155;54.076;12.092;2024-03-08T14:28:51;18.60;60.10
46458;DHT22;32155;54.076;12.092;2024-03-08T15:02:17;15.70;61.40
46458;DHT22;32155;54.076;12.092;2024-03-08T15:33:13;12.60;71.30
46458;DHT22;32155;54.076;12.092;2024-03-08T15:36:08;12.20;75.40
46458;DHT22;32155;54.076;12.092;2024-03-08T16:18:31;8.00;99.90
46458;DHT22;32155;54.076;12.092;2024-03-08T16:45:57;7.00;99.90
46458;DHT22;32155;54.076;12.092;2024-03-08T17:00:23;6.50;99.90
46458;DHT22;32155;54.076;12.092;2024-03-08T17:58:19;4.80;99.90
46458;DHT22;32155;54.076;12.092;2024-03-08T18:07:22;4.60;99.90
46458;DHT22;32155;54.076;12.092;2024-03-08T18:24:56;4.20;99.90
46458;DHT22;32155;54.076;12.092;2024-03-08T18:30:49;4.20;99.90
46458;DHT22;32155;54.076;12.092;2024-03-08T18:33:50;4.20;99.90
46458;DHT22;32155;54.076;12.092;2024-03-08T18:36:15;4.10;99.90
46458;DHT22;32155;54.076;12.092;2024-03-08T18:38:41;4.00;99.90
46458;DHT22;32155;54.076;12.092;2024-03-08T18:41:07;4.00;99.90
46458;DHT22;32155;54.076;12.092;2024-03-08T18:43:33;3.90;99.90
46458;DHT22;32155;54.076;12.092;2024-03-08T18:45:59;3.90;99.90
46458;DHT22;32155;54.076;12.092;2024-03-08T18:48:26;3.80;99.90
46458;DHT22;32155;54.076;12.092;2024-03-08T18:50:52;3.80;99.90
46458;DHT22;32155;54.076;12.092;2024-03-08T18:53:17;3.70;99.90
46458;DHT22;32155;54.076;12.092;2024-03-08T18:55:43;3.70;99.90
46458;DHT22;32155;54.076;12.092;2024-03-08T18:58:11;3.60;99.90
46458;DHT22;32155;54.076;12.092;2024-03-08T19:00:40;3.60;99.90
46458;DHT22;32155;54.076;12.092;2024-03-08T19:03:08;3.50;99.90
46458;DHT22;32155;54.076;12.092;2024-03-08T19:05:39;3.40;99.90
46458;DHT22;32155;54.076;12.092;2024-03-08T19:08:07;3.40;99.90
46458;DHT22;32155;54.076;12.092;2024-03-08T19:10:34;3.30;99.90
46458;DHT22;32155;54.076;12.092;2024-03-08T19:13:00;3.30;99.90
46458;DHT22;32155;54.076;12.092;2024-03-08T19:15:27;3.30;99.90
46458;DHT22;32155;54.076;12.092;2024-03-08T19:17:53;3.20;99.90
46458;DHT22;32155;54.076;12.092;2024-03-08T19:20:22;3.20;99.90
46458;DHT22;32155;54.076;12.092;2024-03-08T19:22:50;3.10;99.90
46458;DHT22;32155;54.076;12.092;2024-03-08T19:25:20;3.10;99.90
46458;DHT22;32155;54.076;12.092;2024-03-08T19:27:46;3.00;99.90
46458;DHT22;32155;54.076;12.092;2024-03-08T19:30:12;2.90;99.90
46458;DHT22;32155;54.076;12.092;2024-03-08T19:32:41;3.00;99.90
46458;DHT22;32155;54.076;12.092;2024-03-08T19:35:07;3.00;99.90
46458;DHT22;32155;54.076;12.092;2024-03-08T19:37:37;2.90;99.90
46458;DHT22;32155;54.076;12.092;2024-03-08T19:40:09;2.80;99.90
46458;DHT22;32155;54.076;12.092;2024-03-08T19:42:41;2.80;99.90
46458;DHT22;32155;54.076;12.092;2024-03-08T19:45:08;2.80;99.90
46458;DHT22;32155;54.076;12.092;2024-03-08T19:47:35;2.70;99.90
46458;DHT22;32155;54.076;12.092;2024-03-08T19:50:00;2.70;99.90
46458;DHT22;32155;54.076;12.092;2024-03-08T19:52:26;2.70;99.90
46458;DHT22;32155;54.076;12.092;2024-03-08T19:54:52;2.60;99.90
46458;DHT22;32155;54.076;12.092;2024-03-08T19:57:19;2.60;99.90
46458;DHT22;32155;54.076;12.092;2024-03-08T19:59:45;2.70;99.90
46458;DHT22;32155;54.076;12.092;2024-03-08T20:02:12;2.60;99.90
46458;DHT22;32155;54.076;12.092;2024-03-08T20:04:38;2.60;99.90
46458;DHT22;32155;54.076;12.092;2024-03-08T20:07:04;2.60;99.90
46458;DHT22;32155;54.076;12.092;2024-03-08T20:09:29;2.50;99.90
46458;DHT22;32155;54.076;12.092;2024-03-08T20:11:56;2.50;99.90
46458;DHT22;32155;54.076;12.092;2024-03-08T20:14:24;2.50;99.90
46458;DHT22;32155;54.076;12.092;2024-03-08T20:16:51;2.40;99.90
46458;DHT22;32155;54.076;12.092;2024-03-08T20:19:17;2.50;99.90
46458;DHT22;32155;54.076;12.092;2024-03-08T20:21:43;2.40;99.90
46458;DHT22;32155;54.076;12.092;2024-03-08T20:24:11;2.40;99.90
46458;DHT22;32155;54.076;12.092;2024-03-08T20:26:38;2.40;99.90
46458;DHT22;32155;54.076;12.092;2024-03-08T20:29:04;2.40;99.90
46458;DHT22;32155;54.076;12.092;2024-03-08T20:31:33;2.30;99.90
46458;DHT22;32155;54.076;12.092;2024-03-08T20:33:59;2.30;99.90
46458;DHT22;32155;54.076;12.092;2024-03-08T20:36:24;2.30;99.90
46458;DHT22;32155;54.076;12.092;2024-03-08T20:38:52;2.30;99.90
46458;DHT22;32155;54.076;12.092;2024-03-08T20:41:20;2.20;99.90
46458;DHT22;32155;54.076;12.092;2024-03-08T20:43:47;2.20;99.90
46458;DHT22;32155;54.076;12.092;2024-03-08T20:46:12;2.20;99.90
46458;DHT22;32155;54.076;12.092;2024-03-08T20:48:40;2.20;99.90
46458;DHT22;32155;54.076;12.092;2024-03-08T20:51:11;2.10;99.90
46458;DHT22;32155;54.076;12.092;2024-03-08T20:53:38;2.10;99.90
46458;DHT22;32155;54.076;12.092;2024-03-08T20:56:06;2.10;99.90
46458;DHT22;32155;54.076;12.092;2024-03-08T20:58:35;2.00;99.90
46458;DHT22;32155;54.076;12.092;2024-03-08T21:01:00;2.10;99.90
46458;DHT22;32155;54.076;12.092;2024-03-08T21:03:29;2.00;99.90
46458;DHT22;32155;54.076;12.092;2024-03-08T21:05:55;2.10;99.90
46458;DHT22;32155;54.076;12.092;2024-03-08T21:08:22;2.00;99.90
46458;DHT22;32155;54.076;12.092;2024-03-08T21:10:54;2.00;99.90
46458;DHT22;32155;54.076;12.092;2024-03-08T21:13:23;2.00;99.90
46458;DHT22;32155;54.076;12.092;2024-03-08T21:15:52;2.00;99.90
46458;DHT22;32155;54.076;12.092;2024-03-08T21:18:21;2.00;99.90
46458;DHT22;32155;54.076;12.092;2024-03-08T21:20:50;2.00;99.90
46458;DHT22;32155;54.076;12.092;2024-03-08T21:23:23;1.90;99.90
46458;DHT22;32155;54.076;12.092;2024-03-08T21:25:52;1.90;99.90
46458;DHT22;32155;54.076;12.092;2024-03-08T21:28:18;1.90;99.90
46458;DHT22;32155;54.076;12.092;2024-03-08T21:30:46;2.00;99.90
46458;DHT22;32155;54.076;12.092;2024-03-08T21:33:12;1.90;99.90
46458;DHT22;32155;54.076;12.092;2024-03-08T21:35:39;2.00;99.90
46458;DHT22;32155;54.076;12.092;2024-03-08T21:38:06;1.90;99.90
46458;DHT22;32155;54.076;12.092;2024-03-08T21:40:37;1.90;99.90
46458;DHT22;32155;54.076;12.092;2024-03-08T21:43:05;1.90;99.90
46458;DHT22;32155;54.076;12.092;2024-03-08T21:45:31;1.90;99.90
46458;DHT22;32155;54.076;12.092;2024-03-08T21:47:57;1.90;99.90
46458;DHT22;32155;54.076;12.092;2024-03-08T21:50:28;1.80;99.90
46458;DHT22;32155;54.076;12.092;2024-03-08T21:52:55;1.70;99.90
46458;DHT22;32155;54.076;12.092;2024-03-08T21:55:25;1.80;99.90
46458;DHT22;32155;54.076;12.092;2024-03-08T21:57:51;1.70;99.90
46458;DHT22;32155;54.076;12.092;2024-03-08T22:00:19;1.70;99.90
46458;DHT22;32155;54.076;12.092;2024-03-08T22:02:48;1.70;99.90
46458;DHT22;32155;54.076;12.092;2024-03-08T22:05:14;1.60;99.90
46458;DHT22;32155;54.076;12.092;2024-03-08T22:07:44;1.70;99.90
46458;DHT22;32155;54.076;12.092;2024-03-08T22:10:10;1.70;99.90
46458;DHT22;32155;54.076;12.092;2024-03-08T22:12:35;1.60;99.90
46458;DHT22;32155;54.076;12.092;2024-03-08T22:15:04;1.60;99.90
46458;DHT22;32155;54.076;12.092;2024-03-08T22:17:34;1.60;99.90
46458;DHT22;32155;54.076;12.092;2024-03-08T22:20:00;1.60;99.90
46458;DHT22;32155;54.076;12.092;2024-03-08T22:22:31;1.60;99.90
46458;DHT22;32155;54.076;12.092;2024-03-08T22:24:57;1.50;99.90
46458;DHT22;32155;54.076;12.092;2024-03-08T22:27:23;1.60;99.90
46458;DHT22;32155;54.076;12.092;2024-03-08T22:29:50;1.50;99.90
46458;DHT22;32155;54.076;12.092;2024-03-08T22:32:15;1.50;99.90
46458;DHT22;32155;54.076;12.092;2024-03-08T22:34:42;1.50;99.90
46458;DHT22;32155;54.076;12.092;2024-03-08T22:37:07;1.50;99.90
46458;DHT22;32155;54.076;12.092;2024-03-08T22:39:38;1.50;99.90
46458;DHT22;32155;54.076;12.092;2024-03-08T22:42:04;1.50;99.90
46458;DHT22;32155;54.076;12.092;2024-03-08T22:44:31;1.50;99.90
46458;DHT22;32155;54.076;12.092;2024-03-08T22:46:58;1.50;99.90
46458;DHT22;32155;54.076;12.092;2024-03-08T22:49:23;1.40;99.90
46458;DHT22;32155;54.076;12.092;2024-03-08T22:51:49;1.40;99.90
46458;DHT22;32155;54.076;12.092;2024-03-08T22:54:15;1.40;99.90
46458;DHT22;32155;54.076;12.092;2024-03-08T22:56:42;1.40;99.90
46458;DHT22;32155;54.076;12.092;2024-03-08T22:59:08;1.40;99.90
46458;DHT22;32155;54.076;12.092;2024-03-08T23:01:34;1.30;99.90
46458;DHT22;32155;54.076;12.092;2024-03-08T23:04:00;1.40;99.90
46458;DHT22;32155;54.076;12.092;2024-03-08T23:06:25;1.30;99.90
46458;DHT22;32155;54.076;12.092;2024-03-08T23:08:52;1.40;99.90
46458;DHT22;32155;54.076;12.092;2024-03-08T23:11:18;1.30;99.90
46458;DHT22;32155;54.076;12.092;2024-03-08T23:13:44;1.30;99.90
46458;DHT22;32155;54.076;12.092;2024-03-08T23:16:15;1.30;99.90
46458;DHT22;32155;54.076;12.092;2024-03-08T23:18:42;1.30;99.90
46458;DHT22;32155;54.076;12.092;2024-03-08T23:21:08;1.20;99.90
46458;DHT22;32155;54.076;12.092;2024-03-08T23:23:36;1.30;99.90
46458;DHT22;32155;54.076;12.092;2024-03-08T23:26:02;1.40;99.90
46458;DHT22;32155;54.076;12.092;2024-03-08T23:28:27;1.40;99.90
46458;DHT22;32155;54.076;12.092;2024-03-08T23:30:54;1.40;99.90
46458;DHT22;32155;54.076;12.092;2024-03-08T23:33:22;1.30;99.90
46458;DHT22;32155;54.076;12.092;2024-03-08T23:35:48;1.30;99.90
46458;DHT22;32155;54.076;12.092;2024-03-08T23:38:14;1.30;99.90
46458;DHT22;32155;54.076;12.092;2024-03-08T23:40:39;1.30;99.90
46458;DHT22;32155;54.076;12.092;2024-03-08T23:43:07;1.40;99.90
46458;DHT22;32155;54.076;12.092;2024-03-08T23:45:33;1.30;99.90
46458;DHT22;32155;54.076;12.092;2024-03-08T23:47:59;1.20;99.90
46458;DHT22;32155;54.076;12.092;2024-03-08T23:50:29;1.40;99.90
46458;DHT22;32155;54.076;12.092;2024-03-08T23:52:59;1.30;99.90
46458;DHT22;32155;54.076;12.092;2024-03-08T23:55:25;1.20;99.90
46458;DHT22;32155;54.076;12.092;2024-03-08T23:57:56;1.30;99.90
